Time;durP1;ratioP1;P1;durP2;ratioP2;P2;SDS_P1;SDS_P2;PMS_P1;PMS_P2;Temp;Humidity;BMP_temperature;BMP_pressure;BME280_temperature;BME280_humidity;BME280_pressure;Samples;Min_cycle;Max_cycle;Signal;HPM_P1;HPM_P2
2021/05/30 00:03:58;;;;;;;18.40;13.83;;;;;11.40;102232.00;;;;10484171;28;20216;-74
2021/05/30 00:09:00;;;;;;;19.57;14.77;;;;;11.30;102225.00;;;;10490308;28;20207;-74
2021/05/30 00:14:04;;;;;;;22.47;15.13;;;;;11.30;102231.00;;;;10451709;28;20193;-74
2021/05/30 00:19:06;;;;;;;23.27;15.50;;;;;11.30;102223.00;;;;10481753;28;20216;-75
2021/05/30 00:24:08;;;;;;;21.00;14.80;;;;;11.20;102226.00;;;;10525479;28;20189;-74
2021/05/30 00:29:10;;;;;;;20.17;14.93;;;;;11.20;102234.00;;;;10514725;28;20227;-74
2021/05/30 00:34:12;;;;;;;22.67;16.67;;;;;11.10;102226.00;;;;10542603;28;20244;-74
2021/05/30 00:39:14;;;;;;;22.50;16.93;;;;;11.00;102217.00;;;;10502816;28;20651;-74
2021/05/30 00:44:27;;;;;;;24.07;16.67;;;;;11.00;102220.00;;;;10487579;28;20197;-74
2021/05/30 00:49:29;;;;;;;24.13;17.67;;;;;10.90;102219.00;;;;10466825;28;20256;-74
2021/05/30 00:54:31;;;;;;;24.20;16.17;;;;;10.80;102224.00;;;;10458644;28;20744;-74
2021/05/30 00:59:33;;;;;;;23.10;17.20;;;;;10.80;102229.00;;;;10490490;28;20242;-75
2021/05/30 01:04:36;;;;;;;29.23;17.90;;;;;10.70;102223.00;;;;10524609;28;20254;-76
2021/05/30 01:09:37;;;;;;;30.10;18.53;;;;;10.60;102229.00;;;;10523110;28;20270;-76
2021/05/30 01:14:40;;;;;;;26.57;19.00;;;;;10.60;102225.00;;;;10507303;28;20193;-76
2021/05/30 01:19:44;;;;;;;24.83;18.57;;;;;10.50;102223.00;;;;10489660;28;20203;-76
2021/05/30 01:24:46;;;;;;;24.77;18.63;;;;;10.50;102220.00;;;;10483806;28;20660;-76
2021/05/30 01:29:47;;;;;;;27.17;17.87;;;;;10.40;102215.00;;;;10481554;28;20255;-76
2021/05/30 01:34:49;;;;;;;27.00;18.80;;;;;10.40;102212.00;;;;10447509;28;20213;-76
2021/05/30 01:39:51;;;;;;;30.13;19.70;;;;;10.30;102222.00;;;;10478542;28;20177;-76
2021/05/30 01:44:54;;;;;;;30.17;19.03;;;;;10.20;102223.00;;;;10522252;28;20204;-76
2021/05/30 01:49:56;;;;;;;30.70;19.37;;;;;10.10;102221.00;;;;10455243;28;20331;-76
2021/05/30 01:54:57;;;;;;;24.70;19.23;;;;;10.00;102219.00;;;;10447531;28;20212;-76
2021/05/30 01:59:59;;;;;;;30.77;21.20;;;;;10.00;102220.00;;;;10512899;28;20192;-76
2021/05/30 02:05:02;;;;;;;28.80;20.37;;;;;9.90;102214.00;;;;10521258;28;20185;-76
2021/05/30 02:10:04;;;;;;;31.50;20.33;;;;;9.90;102213.00;;;;10505086;28;20250;-76
2021/05/30 02:15:07;;;;;;;29.57;21.13;;;;;9.90;102210.00;;;;10537986;28;20195;-76
2021/05/30 02:20:12;;;;;;;28.50;21.07;;;;;9.80;102211.00;;;;10540032;28;20204;-76
2021/05/30 02:25:14;;;;;;;35.77;21.80;;;;;9.70;102204.00;;;;10471951;28;20206;-76
2021/05/30 02:30:16;;;;;;;30.97;20.53;;;;;9.70;102204.00;;;;10462349;28;20240;-76
2021/05/30 02:35:18;;;;;;;32.13;21.27;;;;;9.60;102199.00;;;;10446038;28;20626;-76
2021/05/30 02:40:20;;;;;;;30.53;19.40;;;;;9.50;102198.00;;;;10498156;28;20212;-76
2021/05/30 02:45:22;;;;;;;27.83;20.17;;;;;9.40;102191.00;;;;10477338;28;20748;-76
2021/05/30 02:50:24;;;;;;;28.23;19.97;;;;;9.30;102191.00;;;;10461942;28;20287;-76
2021/05/30 02:55:26;;;;;;;32.67;20.07;;;;;9.20;102191.00;;;;10495134;28;20201;-76
2021/05/30 03:00:27;;;;;;;33.87;21.83;;;;;9.20;102199.00;;;;10486897;28;20185;-76
2021/05/30 03:05:30;;;;;;;31.40;22.10;;;;;9.20;102194.00;;;;10496684;28;20219;-76
2021/05/30 03:10:31;;;;;;;34.77;24.17;;;;;9.20;102185.00;;;;10479199;28;20254;-76
2021/05/30 03:15:34;;;;;;;33.03;22.20;;;;;9.20;102184.00;;;;10503828;28;20217;-76
2021/05/30 03:20:35;;;;;;;35.43;22.40;;;;;9.10;102196.00;;;;10505204;28;20219;-76
2021/05/30 03:25:38;;;;;;;37.50;21.63;;;;;9.00;102190.00;;;;10483159;28;20186;-76
2021/05/30 03:30:40;;;;;;;31.03;21.20;;;;;9.00;102191.00;;;;10478737;28;20961;-76
2021/05/30 03:35:43;;;;;;;38.60;24.30;;;;;9.00;102197.00;;;;10488080;28;20767;-76
2021/05/30 03:40:50;;;;;;;34.03;22.00;;;;;9.00;102192.00;;;;10521622;28;20197;-76
2021/05/30 03:45:52;;;;;;;39.40;22.37;;;;;9.00;102195.00;;;;10470610;28;20767;-76
2021/05/30 03:50:55;;;;;;;37.20;22.10;;;;;9.10;102192.00;;;;10485851;28;20212;-76
2021/05/30 03:55:56;;;;;;;32.37;22.43;;;;;9.10;102197.00;;;;10505106;28;20198;-76
2021/05/30 04:00:58;;;;;;;36.53;22.57;;;;;9.20;102203.00;;;;10484754;28;20182;-76
2021/05/30 04:06:00;;;;;;;35.00;22.83;;;;;9.30;102196.00;;;;10468301;28;20267;-76
2021/05/30 04:11:02;;;;;;;37.43;22.90;;;;;9.40;102201.00;;;;10512256;28;20219;-76
2021/05/30 04:16:08;;;;;;;40.50;23.63;;;;;9.60;102205.00;;;;10492098;28;20193;-76
2021/05/30 04:21:10;;;;;;;37.97;24.20;;;;;9.80;102204.00;;;;10525616;28;20196;-76
2021/05/30 04:26:12;;;;;;;36.93;23.67;;;;;9.90;102200.00;;;;10490171;28;20246;-76
2021/05/30 04:31:14;;;;;;;42.80;24.13;;;;;10.00;102207.00;;;;10507906;28;20262;-76
2021/05/30 04:36:16;;;;;;;36.90;23.53;;;;;10.10;102200.00;;;;10483996;28;20193;-76
2021/05/30 04:41:18;;;;;;;38.57;21.57;;;;;10.20;102198.00;;;;10483318;28;20212;-76
2021/05/30 04:46:20;;;;;;;36.63;24.13;;;;;10.40;102196.00;;;;10491672;28;20529;-76
2021/05/30 04:51:23;;;;;;;33.87;22.50;;;;;10.50;102196.00;;;;10540870;28;20197;-76
2021/05/30 04:56:25;;;;;;;34.77;22.63;;;;;10.80;102202.00;;;;10517821;28;20193;-76
2021/05/30 05:01:27;;;;;;;34.57;24.43;;;;;11.00;102210.00;;;;10450321;28;20198;-76
2021/05/30 05:06:28;;;;;;;39.53;23.97;;;;;11.30;102204.00;;;;10465382;28;20221;-76
2021/05/30 05:11:30;;;;;;;39.13;25.67;;;;;11.60;102213.00;;;;10481434;28;20210;-76
2021/05/30 05:16:32;;;;;;;32.47;22.37;;;;;11.90;102212.00;;;;10498655;28;20573;-76
2021/05/30 05:21:34;;;;;;;35.23;23.27;;;;;12.20;102214.00;;;;10468370;28;20892;-76
2021/05/30 05:26:36;;;;;;;28.77;21.63;;;;;12.40;102213.00;;;;10479760;28;20263;-76
2021/05/30 05:31:37;;;;;;;33.03;22.83;;;;;12.90;102230.00;;;;10481581;28;20228;-77
2021/05/30 05:36:39;;;;;;;26.20;21.17;;;;;13.30;102230.00;;;;10464250;28;20200;-76
2021/05/30 05:41:41;;;;;;;24.63;19.87;;;;;13.70;102242.00;;;;10497039;28;20227;-77
2021/05/30 05:46:44;;;;;;;25.17;19.23;;;;;14.30;102243.00;;;;10522145;28;20248;-77
2021/05/30 05:51:45;;;;;;;22.87;18.43;;;;;14.80;102240.00;;;;10521969;28;20216;-77
2021/05/30 05:56:47;;;;;;;25.87;18.70;;;;;15.00;102240.00;;;;10521994;28;20197;-77
2021/05/30 06:01:49;;;;;;;20.70;18.20;;;;;15.30;102246.00;;;;10505698;28;20207;-77
2021/05/30 06:06:51;;;;;;;23.50;17.40;;;;;15.70;102254.00;;;;10520770;28;20719;-77
2021/05/30 06:11:53;;;;;;;21.57;17.17;;;;;16.00;102256.00;;;;10504953;28;20612;-77
2021/05/30 06:16:56;;;;;;;21.37;18.57;;;;;16.30;102252.00;;;;10496878;28;20678;-77
2021/05/30 06:21:58;;;;;;;20.00;17.83;;;;;16.40;102255.00;;;;10505213;28;20193;-77
2021/05/30 06:27:01;;;;;;;18.53;16.57;;;;;16.50;102259.00;;;;10495871;28;20216;-77
2021/05/30 06:32:04;;;;;;;20.33;18.17;;;;;17.00;102265.00;;;;10479131;28;20221;-77
2021/05/30 06:37:06;;;;;;;19.70;17.43;;;;;17.50;102266.00;;;;10471457;28;20184;-77
2021/05/30 06:42:09;;;;;;;19.50;17.47;;;;;17.80;102273.00;;;;10505981;28;20231;-77
2021/05/30 06:47:11;;;;;;;19.50;17.20;;;;;18.00;102273.00;;;;10522004;28;20239;-77
2021/05/30 06:52:13;;;;;;;20.10;18.00;;;;;18.20;102273.00;;;;10517990;28;20745;-77
2021/05/30 06:57:16;;;;;;;20.73;17.42;;;;;18.80;102266.00;;;;10509257;28;20255;-77
2021/05/30 07:02:19;;;;;;;21.67;17.48;;;;;19.10;102260.00;;;;10463950;28;20243;-77
2021/05/30 07:07:21;;;;;;;19.10;16.80;;;;;19.20;102252.00;;;;10510877;28;20189;-77
2021/05/30 07:12:22;;;;;;;19.83;17.73;;;;;19.60;102254.00;;;;10489570;28;20212;-77
2021/05/30 07:17:25;;;;;;;19.05;17.00;;;;;20.10;102248.00;;;;10495259;28;20265;-77
2021/05/30 07:22:27;;;;;;;21.65;17.67;;;;;20.50;102245.00;;;;10518198;28;20306;-77
2021/05/30 07:27:28;;;;;;;19.33;16.73;;;;;20.70;102250.00;;;;10543967;28;20916;-78
2021/05/30 07:32:30;;;;;;;17.98;16.10;;;;;21.20;102241.00;;;;10511077;28;20252;-78
2021/05/30 07:37:32;;;;;;;20.50;17.42;;;;;21.60;102246.00;;;;10481890;28;20315;-77
2021/05/30 07:42:34;;;;;;;19.17;16.00;;;;;21.70;102230.00;;;;10520561;28;20181;-78
2021/05/30 07:47:36;;;;;;;19.13;17.13;;;;;22.10;102230.00;;;;10500710;28;20197;-78
2021/05/30 07:52:39;;;;;;;18.35;16.45;;;;;22.50;102233.00;;;;10503226;28;20243;-78
2021/05/30 07:57:41;;;;;;;18.75;16.15;;;;;22.70;102226.00;;;;10526212;28;20251;-77
2021/05/30 08:02:45;;;;;;;16.77;15.07;;;;;22.70;102228.00;;;;10476500;28;20242;-78
2021/05/30 08:07:49;;;;;;;17.30;15.48;;;;;22.80;102224.00;;;;10528390;28;20220;-78
2021/05/30 08:12:51;;;;;;;17.20;15.40;;;;;23.00;102222.00;;;;10505051;28;20659;-78
2021/05/30 08:17:55;;;;;;;19.27;13.18;;;;;23.60;102212.00;;;;10530132;28;20203;-78
2021/05/30 08:22:57;;;;;;;15.85;14.25;;;;;23.90;102206.00;;;;10517359;28;20211;-78
2021/05/30 08:28:07;;;;;;;17.35;14.23;;;;;24.20;102201.00;;;;10478927;28;20667;-78
2021/05/30 08:33:09;;;;;;;17.23;14.73;;;;;24.30;102202.00;;;;10517392;28;20553;-78
2021/05/30 08:38:10;;;;;;;16.35;14.75;;;;;24.10;102193.00;;;;10515845;28;20190;-78
2021/05/30 08:43:30;;;;;;;14.60;13.20;;;;;24.40;102192.00;;;;10508970;28;20185;-78
2021/05/30 08:48:31;;;;;;;15.35;13.75;;;;;24.60;102187.00;;;;10524635;28;20193;-78
2021/05/30 08:53:36;;;;;;;14.20;12.63;;;;;24.40;102180.00;;;;10487612;28;20206;-78
2021/05/30 08:58:42;;;;;;;15.88;14.38;;;;;24.60;102181.00;;;;10497945;28;20193;-77
2021/05/30 09:04:07;;;;;;;16.00;14.18;;;;;24.80;102172.00;;;;10486779;28;20219;-78
2021/05/30 09:09:11;;;;;;;16.67;14.90;;;;;25.20;102167.00;;;;10528129;28;20229;-76
2021/05/30 09:14:19;;;;;;;15.32;13.77;;;;;25.50;102167.00;;;;10506671;28;20220;-76
2021/05/30 09:19:31;;;;;;;12.32;11.13;;;;;26.00;102177.00;;;;10523479;28;20193;-76
2021/05/30 09:24:33;;;;;;;13.75;12.32;;;;;26.10;102170.00;;;;10496017;28;20189;-76
2021/05/30 09:29:35;;;;;;;12.20;10.85;;;;;25.80;102169.00;;;;10492862;28;20198;-78
2021/05/30 09:34:42;;;;;;;12.88;11.52;;;;;26.00;102158.00;;;;10484389;28;20682;-77
2021/05/30 09:39:46;;;;;;;11.98;10.77;;;;;26.30;102163.00;;;;10537398;28;20766;-78
2021/05/30 09:44:57;;;;;;;10.95;9.55;;;;;25.90;102158.00;;;;10515890;28;20181;-78
2021/05/30 09:49:58;;;;;;;10.70;9.68;;;;;25.60;102159.00;;;;10519542;28;20602;-78
2021/05/30 09:55:34;;;;;;;11.13;10.02;;;;;25.90;102153.00;;;;10503817;28;20207;-78
2021/05/30 10:00:36;;;;;;;13.38;10.73;;;;;25.90;102156.00;;;;10529128;28;20188;-78
2021/05/30 10:05:38;;;;;;;11.38;10.27;;;;;26.00;102154.00;;;;10518644;28;20196;-78
2021/05/30 10:10:40;;;;;;;14.18;10.88;;;;;26.00;102153.00;;;;10504904;28;20321;-78
2021/05/30 10:15:42;;;;;;;10.52;9.48;;;;;26.10;102140.00;;;;10512952;28;20180;-78
2021/05/30 10:20:46;;;;;;;7.10;6.45;;;;;26.60;102135.00;;;;10508696;28;20740;-78
2021/05/30 10:25:49;;;;;;;7.65;5.82;;;;;26.80;102135.00;;;;10509618;28;20724;-78
2021/05/30 10:31:24;;;;;;;8.18;6.03;;;;;27.00;102130.00;;;;10507816;28;20291;-78
2021/05/30 10:36:26;;;;;;;7.38;6.40;;;;;27.30;102129.00;;;;10512873;28;20200;-78
2021/05/30 10:41:28;;;;;;;9.00;7.28;;;;;27.20;102126.00;;;;10497898;28;20193;-79
2021/05/30 10:46:50;;;;;;;9.60;7.35;;;;;27.10;102114.00;;;;10507913;28;20239;-78
2021/05/30 10:51:52;;;;;;;8.75;7.53;;;;;26.80;102114.00;;;;10517224;28;20231;-77
2021/05/30 10:56:54;;;;;;;7.75;6.90;;;;;27.00;102094.00;;;;10502387;28;20262;-78
2021/05/30 11:02:00;;;;;;;5.68;5.18;;;;;26.60;102095.00;;;;10503710;28;20214;-77
2021/05/30 11:07:13;;;;;;;5.07;4.57;;;;;26.30;102099.00;;;;10519676;28;20198;-78
2021/05/30 11:12:24;;;;;;;5.45;3.92;;;;;26.80;102093.00;;;;10507268;28;20211;-78
2021/05/30 11:17:35;;;;;;;5.35;4.18;;;;;27.00;102076.00;;;;10475995;28;20237;-78
2021/05/30 11:22:46;;;;;;;3.80;3.50;;;;;27.50;102073.00;;;;10462204;28;20186;-77
2021/05/30 11:27:57;;;;;;;5.78;4.18;;;;;27.30;102080.00;;;;10518632;28;20192;-78
2021/05/30 11:33:01;;;;;;;4.93;3.85;;;;;27.30;102058.00;;;;10517104;28;20337;-78
2021/05/30 11:38:03;;;;;;;4.13;3.25;;;;;27.70;102064.00;;;;10504695;28;20189;-77
2021/05/30 11:43:19;;;;;;;4.03;3.30;;;;;27.70;102050.00;;;;10492762;28;20205;-78
2021/05/30 11:48:20;;;;;;;3.97;3.58;;;;;27.60;102050.00;;;;10475571;28;20192;-78
2021/05/30 11:53:34;;;;;;;4.50;3.60;;;;;27.60;102044.00;;;;10533374;28;20254;-78
2021/05/30 11:58:45;;;;;;;3.85;3.42;;;;;27.50;102041.00;;;;10530975;28;20204;-77
2021/05/30 12:03:48;;;;;;;4.43;4.03;;;;;27.40;102043.00;;;;10516574;28;20166;-78
2021/05/30 12:08:54;;;;;;;3.80;3.47;;;;;27.70;102043.00;;;;10492690;28;20204;-78
2021/05/30 12:14:05;;;;;;;3.83;3.40;;;;;27.50;102032.00;;;;10495702;28;20198;-78
2021/05/30 12:19:07;;;;;;;4.95;3.45;;;;;27.40;102037.00;;;;10475478;28;20197;-79
2021/05/30 12:24:11;;;;;;;4.47;3.90;;;;;27.30;102026.00;;;;10516138;28;20277;-78
2021/05/30 12:29:16;;;;;;;5.47;3.70;;;;;27.20;102021.00;;;;10532293;28;20548;-78
2021/05/30 12:34:18;;;;;;;4.97;3.70;;;;;27.50;102011.00;;;;10474795;28;20248;-78
2021/05/30 12:39:27;;;;;;;4.00;3.60;;;;;27.50;102003.00;;;;10486221;28;20196;-78
2021/05/30 12:44:51;;;;;;;5.82;3.90;;;;;27.50;101999.00;;;;10503138;28;20223;-78
2021/05/30 12:50:00;;;;;;;5.63;3.58;;;;;27.70;101992.00;;;;10498330;28;20189;-77
2021/05/30 12:55:06;;;;;;;4.47;3.70;;;;;28.10;101993.00;;;;10536111;28;20196;-77
2021/05/30 13:00:10;;;;;;;3.70;3.30;;;;;28.30;101993.00;;;;10477893;28;20201;-78
2021/05/30 13:05:12;;;;;;;3.33;3.03;;;;;28.50;101992.00;;;;10490319;28;20189;-78
2021/05/30 13:10:14;;;;;;;3.90;3.13;;;;;29.00;101997.00;;;;10507846;28;20185;-78
2021/05/30 13:15:27;;;;;;;3.15;2.40;;;;;29.80;101977.00;;;;10531042;28;20578;-78
2021/05/30 13:20:31;;;;;;;3.25;3.00;;;;;30.30;101974.00;;;;10518857;28;20212;-78
2021/05/30 13:25:42;;;;;;;3.22;2.90;;;;;30.60;101967.00;;;;10504736;28;20201;-76
2021/05/30 13:30:51;;;;;;;4.90;2.85;;;;;31.90;101964.00;;;;10530211;28;20193;-78
2021/05/30 13:36:15;;;;;;;4.57;4.10;;;;;32.90;101962.00;;;;10522091;28;20672;-78
2021/05/30 13:41:20;;;;;;;5.07;2.60;;;;;33.60;101965.00;;;;10471872;28;20754;-78
2021/05/30 13:46:23;;;;;;;5.78;3.95;;;;;33.70;101961.00;;;;10488250;28;20224;-78
2021/05/30 13:51:26;;;;;;;7.32;6.20;;;;;33.90;101940.00;;;;10485438;28;20177;-76
2021/05/30 13:56:28;;;;;;;2.67;2.47;;;;;34.30;101936.00;;;;10526971;28;20247;-78
2021/05/30 14:01:30;;;;;;;3.00;2.80;;;;;35.00;101927.00;;;;10502377;28;20563;-78
2021/05/30 14:06:32;;;;;;;3.20;2.72;;;;;35.10;101932.00;;;;10471879;28;20248;-76
2021/05/30 14:11:35;;;;;;;2.90;2.40;;;;;35.70;101928.00;;;;10512048;28;20551;-78
2021/05/30 14:16:41;;;;;;;3.33;3.03;;;;;36.50;101923.00;;;;10536937;28;20647;-78
2021/05/30 14:21:43;;;;;;;3.78;2.63;;;;;36.80;101919.00;;;;10499145;28;20201;-76
2021/05/30 14:26:45;;;;;;;3.97;2.70;;;;;37.30;101918.00;;;;10483168;28;20181;-76
2021/05/30 14:31:47;;;;;;;4.10;2.53;;;;;37.60;101913.00;;;;10463248;28;20225;-76
2021/05/30 14:36:48;;;;;;;3.05;2.63;;;;;37.50;101920.00;;;;10467660;28;20205;-77
2021/05/30 14:41:50;;;;;;;2.50;2.30;;;;;37.90;101911.00;;;;10495459;28;20258;-77
2021/05/30 14:46:52;;;;;;;2.47;2.28;;;;;38.40;101907.00;;;;10527295;28;20188;-78
2021/05/30 14:51:54;;;;;;;3.42;2.25;;;;;38.30;101901.00;;;;10480350;28;20591;-77
2021/05/30 14:56:57;;;;;;;3.22;2.60;;;;;37.40;101897.00;;;;10489293;28;20560;-78
2021/05/30 15:01:59;;;;;;;2.60;2.40;;;;;37.70;101886.00;;;;10473364;28;20201;-76
2021/05/30 15:07:02;;;;;;;3.03;2.45;;;;;38.10;101885.00;;;;10505753;28;20185;-76
2021/05/30 15:12:04;;;;;;;2.33;2.10;;;;;38.00;101886.00;;;;10493183;28;20194;-76
2021/05/30 15:17:06;;;;;;;4.72;2.20;;;;;37.80;101881.00;;;;10480789;28;20595;-76
2021/05/30 15:22:08;;;;;;;2.67;2.38;;;;;38.50;101876.00;;;;10496616;28;20205;-76
2021/05/30 15:27:10;;;;;;;2.50;2.30;;;;;38.70;101879.00;;;;10500758;28;20198;-76
2021/05/30 15:32:12;;;;;;;2.40;2.20;;;;;38.30;101870.00;;;;10496054;28;20228;-78
2021/05/30 15:37:14;;;;;;;2.40;2.20;;;;;38.00;101870.00;;;;10516664;28;20209;-78
2021/05/30 15:42:16;;;;;;;2.38;2.17;;;;;38.30;101857.00;;;;10517588;28;20225;-77
2021/05/30 15:47:18;;;;;;;3.28;2.38;;;;;35.30;101875.00;;;;10523763;28;20247;-77
2021/05/30 15:52:19;;;;;;;4.65;2.42;;;;;31.10;101870.00;;;;10513386;28;20185;-78
2021/05/30 15:57:21;;;;;;;2.95;2.40;;;;;29.20;101853.00;;;;10517057;28;20230;-78
2021/05/30 16:02:23;;;;;;;2.53;2.33;;;;;31.10;101840.00;;;;10511065;28;20216;-78
2021/05/30 16:07:25;;;;;;;3.00;2.45;;;;;27.50;101846.00;;;;10514549;28;20189;-78
2021/05/30 16:12:27;;;;;;;2.97;2.67;;;;;26.00;101844.00;;;;10509164;28;20567;-78
2021/05/30 16:17:29;;;;;;;2.35;2.03;;;;;25.10;101833.00;;;;10495954;28;20204;-77
2021/05/30 16:22:34;;;;;;;2.83;2.38;;;;;24.60;101838.00;;;;10505748;28;20202;-77
2021/05/30 16:27:36;;;;;;;5.50;2.30;;;;;24.20;101823.00;;;;10504632;28;20193;-77
2021/05/30 16:32:38;;;;;;;2.38;2.17;;;;;24.00;101824.00;;;;10516975;28;20275;-77
2021/05/30 16:37:41;;;;;;;11.23;7.65;;;;;23.80;101822.00;;;;10503433;28;20220;-78
2021/05/30 16:42:43;;;;;;;4.82;3.30;;;;;23.70;101823.00;;;;10491549;28;20205;-77
2021/05/30 16:47:48;;;;;;;3.55;2.40;;;;;23.60;101812.00;;;;10504605;28;20186;-78
2021/05/30 16:52:50;;;;;;;2.70;2.35;;;;;23.40;101813.00;;;;10496280;28;20188;-77
2021/05/30 16:57:51;;;;;;;2.55;2.35;;;;;23.20;101811.00;;;;10513248;28;20245;-77
2021/05/30 17:02:53;;;;;;;2.60;2.40;;;;;23.10;101812.00;;;;10472038;28;20201;-77
2021/05/30 17:08:04;;;;;;;3.45;2.10;;;;;23.00;101818.00;;;;10512568;28;20189;-76
2021/05/30 17:13:06;;;;;;;4.65;2.42;;;;;22.80;101812.00;;;;10529761;28;20651;-77
2021/05/30 17:18:07;;;;;;;3.90;2.30;;;;;22.80;101808.00;;;;10473446;28;20198;-77
2021/05/30 17:23:11;;;;;;;3.90;2.55;;;;;22.70;101804.00;;;;10499069;28;20236;-76
2021/05/30 17:28:13;;;;;;;4.05;2.42;;;;;22.70;101809.00;;;;10485180;28;20186;-78
2021/05/30 17:33:19;;;;;;;3.75;2.33;;;;;22.50;101807.00;;;;10460361;28;20213;-77
2021/05/30 17:38:24;;;;;;;2.83;2.45;;;;;22.40;101810.00;;;;10481353;28;20303;-77
2021/05/30 17:43:26;;;;;;;4.03;2.33;;;;;22.30;101804.00;;;;10499664;28;20202;-77
2021/05/30 17:48:28;;;;;;;2.97;2.45;;;;;22.20;101807.00;;;;10471535;28;20895;-77
2021/05/30 17:53:32;;;;;;;4.68;2.58;;;;;22.10;101800.00;;;;10468506;28;20692;-77
2021/05/30 17:58:34;;;;;;;3.30;3.00;;;;;22.00;101802.00;;;;10513197;28;20628;-76
2021/05/30 18:03:36;;;;;;;4.63;2.58;;;;;21.90;101800.00;;;;10501595;28;20671;-76
2021/05/30 18:08:58;;;;;;;3.03;2.60;;;;;21.70;101799.00;;;;10497203;28;20197;-77
2021/05/30 18:14:00;;;;;;;2.58;2.38;;;;;21.60;101791.00;;;;10523950;28;20231;-77
2021/05/30 18:19:02;;;;;;;2.60;2.40;;;;;21.50;101794.00;;;;10517504;28;20644;-77
2021/05/30 18:24:04;;;;;;;3.08;2.47;;;;;21.40;101789.00;;;;10515613;28;20680;-76
2021/05/30 18:29:06;;;;;;;2.83;2.63;;;;;21.20;101792.00;;;;10514493;28;20203;-77
2021/05/30 18:34:08;;;;;;;2.95;2.45;;;;;21.10;101788.00;;;;10491885;28;20299;-77
2021/05/30 18:39:10;;;;;;;3.67;2.65;;;;;21.00;101783.00;;;;10462425;28;20198;-76
2021/05/30 18:44:12;;;;;;;3.20;2.25;;;;;20.90;101785.00;;;;10481847;28;20240;-76
2021/05/30 18:49:15;;;;;;;2.70;2.50;;;;;20.70;101789.00;;;;10520841;28;20208;-76
2021/05/30 18:54:17;;;;;;;3.78;2.50;;;;;20.60;101785.00;;;;10511528;28;20251;-76
2021/05/30 18:59:19;;;;;;;3.38;2.55;;;;;20.50;101779.00;;;;10489032;28;20192;-76
2021/05/30 19:04:21;;;;;;;3.38;3.03;;;;;20.30;101775.00;;;;10499045;28;20589;-76
2021/05/30 19:09:23;;;;;;;3.47;2.70;;;;;20.70;101776.00;;;;10529970;28;20336;-77
2021/05/30 19:14:26;;;;;;;4.72;2.90;;;;;22.60;101773.00;;;;10477910;28;20190;-77
2021/05/30 19:19:29;;;;;;;3.65;2.70;;;;;21.80;101774.00;;;;10497210;28;20234;-77
2021/05/30 19:24:31;;;;;;;3.47;2.55;;;;;21.00;101779.00;;;;10519841;28;20217;-76
2021/05/30 19:29:32;;;;;;;4.45;2.67;;;;;20.30;101785.00;;;;10536805;28;20209;-77
2021/05/30 19:34:34;;;;;;;2.80;2.58;;;;;19.70;101793.00;;;;10545301;28;20702;-77
2021/05/30 19:39:36;;;;;;;4.40;3.00;;;;;19.30;101786.00;;;;10495849;28;20242;-77
2021/05/30 19:44:38;;;;;;;5.15;3.58;;;;;18.90;101790.00;;;;10510259;28;20213;-77
2021/05/30 19:49:40;;;;;;;4.28;3.40;;;;;18.60;101785.00;;;;10487620;28;20675;-77
2021/05/30 19:54:45;;;;;;;5.63;3.78;;;;;18.20;101798.00;;;;10481022;28;20200;-77
2021/05/30 19:59:48;;;;;;;6.90;3.93;;;;;17.90;101800.00;;;;10488494;28;20197;-77
2021/05/30 20:04:50;;;;;;;3.63;3.30;;;;;17.70;101807.00;;;;10502726;28;20205;-77
2021/05/30 20:09:54;;;;;;;5.97;3.70;;;;;17.50;101810.00;;;;10510422;28;20200;-77
2021/05/30 20:14:56;;;;;;;5.10;4.20;;;;;17.30;101813.00;;;;10504195;28;20531;-77
2021/05/30 20:19:58;;;;;;;3.67;3.30;;;;;17.10;101814.00;;;;10489458;28;20190;-77
2021/05/30 20:25:02;;;;;;;4.33;3.27;;;;;16.90;101807.00;;;;10477555;28;20557;-77
2021/05/30 20:30:05;;;;;;;8.23;3.67;;;;;16.80;101820.00;;;;10502369;28;20189;-77
2021/05/30 20:35:15;;;;;;;5.07;3.97;;;;;16.60;101819.00;;;;10506140;28;20270;-77
2021/05/30 20:40:17;;;;;;;5.13;4.20;;;;;16.50;101818.00;;;;10512894;28;20302;-77
2021/05/30 20:45:19;;;;;;;7.73;5.57;;;;;16.50;101822.00;;;;10487037;28;20231;-77
2021/05/30 20:50:21;;;;;;;8.37;6.17;;;;;16.40;101821.00;;;;10499622;28;20185;-77
2021/05/30 20:55:23;;;;;;;8.93;6.20;;;;;16.30;101819.00;;;;10495813;28;20470;-77
2021/05/30 21:00:25;;;;;;;6.60;5.30;;;;;16.20;101815.00;;;;10476298;28;20239;-77
2021/05/30 21:05:27;;;;;;;8.00;4.43;;;;;16.20;101813.00;;;;10492070;28;20205;-76
2021/05/30 21:10:29;;;;;;;7.10;3.70;;;;;16.20;101807.00;;;;10498447;28;20200;-77
2021/05/30 21:15:31;;;;;;;5.40;3.93;;;;;16.10;101815.00;;;;10519918;28;20181;-77
2021/05/30 21:20:33;;;;;;;3.93;3.53;;;;;16.00;101812.00;;;;10522927;28;20582;-77
2021/05/30 21:25:35;;;;;;;3.93;3.53;;;;;15.90;101810.00;;;;10518152;28;20283;-77
2021/05/30 21:30:37;;;;;;;4.97;3.53;;;;;15.70;101816.00;;;;10467430;28;20247;-77
2021/05/30 21:35:40;;;;;;;4.50;4.00;;;;;15.60;101805.00;;;;10521247;28;20611;-77
2021/05/30 21:40:42;;;;;;;6.43;4.47;;;;;15.40;101808.00;;;;10472023;28;20784;-77
2021/05/30 21:45:43;;;;;;;6.63;5.10;;;;;15.20;101802.00;;;;10474388;28;20239;-77
2021/05/30 21:50:45;;;;;;;10.30;5.70;;;;;15.10;101804.00;;;;10505398;28;20525;-77
2021/05/30 21:55:47;;;;;;;9.70;6.63;;;;;14.90;101800.00;;;;10498492;28;20221;-77
2021/05/30 22:00:49;;;;;;;8.23;6.20;;;;;14.80;101799.00;;;;10493261;28;20197;-77
2021/05/30 22:05:51;;;;;;;7.73;5.30;;;;;14.80;101799.00;;;;10484185;28;20272;-77
2021/05/30 22:10:53;;;;;;;5.13;4.63;;;;;14.70;101795.00;;;;10487982;28;20262;-77
2021/05/30 22:15:56;;;;;;;8.67;4.17;;;;;14.70;101803.00;;;;10498487;28;20671;-77
2021/05/30 22:20:58;;;;;;;6.93;3.93;;;;;14.60;101803.00;;;;10503683;28;20201;-76
2021/05/30 22:26:01;;;;;;;9.20;3.77;;;;;14.60;101804.00;;;;10462797;28;20225;-76
2021/05/30 22:31:03;;;;;;;6.10;3.67;;;;;14.50;101798.00;;;;10462995;28;20197;-77
2021/05/30 22:36:05;;;;;;;3.83;3.47;;;;;14.40;101800.00;;;;10490727;28;20224;-77
2021/05/30 22:41:06;;;;;;;3.47;3.17;;;;;14.20;101797.00;;;;10481728;28;20193;-76
2021/05/30 22:46:09;;;;;;;4.37;3.90;;;;;14.10;101801.00;;;;10472063;28;20388;-76
2021/05/30 22:51:11;;;;;;;6.23;4.43;;;;;13.90;101801.00;;;;10499703;28;20200;-76
2021/05/30 22:56:13;;;;;;;5.20;3.97;;;;;13.80;101793.00;;;;10501533;28;20193;-76
2021/05/30 23:01:15;;;;;;;7.53;4.33;;;;;13.70;101794.00;;;;10528556;28;20705;-76
2021/05/30 23:06:17;;;;;;;7.07;4.13;;;;;13.60;101791.00;;;;10511725;28;20660;-77
2021/05/30 23:11:24;;;;;;;5.57;4.13;;;;;13.60;101790.00;;;;10528522;28;20189;-76
2021/05/30 23:16:27;;;;;;;6.33;4.97;;;;;13.50;101798.00;;;;10495063;28;20185;-76
2021/05/30 23:21:29;;;;;;;5.60;4.50;;;;;13.40;101802.00;;;;10495134;28;20305;-76
2021/05/30 23:26:31;;;;;;;7.13;4.60;;;;;13.30;101797.00;;;;10499781;28;20185;-76
2021/05/30 23:31:33;;;;;;;4.63;4.20;;;;;13.20;101799.00;;;;10510743;28;20266;-76
2021/05/30 23:36:35;;;;;;;7.77;5.13;;;;;13.10;101800.00;;;;10472748;28;20182;-76
2021/05/30 23:41:37;;;;;;;6.17;4.60;;;;;13.00;101805.00;;;;10452717;28;20240;-76
2021/05/30 23:46:39;;;;;;;7.20;4.67;;;;;12.90;101805.00;;;;10489387;28;20225;-77
2021/05/30 23:51:41;;;;;;;5.37;4.50;;;;;12.80;101802.00;;;;10495758;28;20625;-76
2021/05/30 23:56:43;;;;;;;6.07;4.47;;;;;12.80;101788.00;;;;10509056;28;20231;-76
